Bookmark and Share
Track history (hours):
 

Folla

Last reported at 2014-Apr-13 06:16 UTC. Time now 2014-Apr-23 09:27 UTC.
Position N 66°07' E 012°40'.
Warning: this ship's position is 10 days out of date.

Length 52 m; draft 5 m.

Type: Cargo ship. MMSI: 258253000.

NotesDate/timePositionNaut miles runAvg speedWind from/ knotsBaromVisibWave heightAir tempDewpointWater temp
2014-Apr-13 06:16N 66°07' E 012°40'811.0
2014-Apr-13 05:33N 66°15' E 012°40'10 9.8
2014-Apr-13 04:33N 66°24' E 012°49'8 8.0
2014-Apr-13 03:33N 66°32' E 012°53'26 7.6
2014-Apr-13 00:09N 66°54' E 013°26'610.0
2014-Apr-12 23:32N 66°59' E 013°36'1110.8
2014-Apr-12 22:33N 67°06' E 013°57'1110.6
2014-Apr-12 21:33N 67°14' E 014°13'5 5.3
2014-Apr-12 20:33N 67°17' E 014°24'2 2.4
2014-Apr-12 19:33N 67°20' E 014°23'1110.8
2014-Apr-12 18:33N 67°30' E 014°29'101 6.3
2014-Apr-12 02:27N 68°54' E 017°02'5910.1
2014-Apr-11 20:33N 69°38' E 018°56'3 3.1
2014-Apr-11 19:33N 69°41' E 018°59'0 0.2
2014-Apr-11 18:33N 69°41' E 018°59'4 4.5
2014-Apr-11 17:33N 69°36' E 018°54'232 7.2
2014-Apr-10 09:25N 66°26' E 012°59'  
2014-Apr-06 21:26N 66°06' E 012°42'15 8.2
2014-Apr-06 19:32N 66°20' E 012°57'1010.6
2014-Apr-06 18:33N 66°30' E 012°59'30 7.4
2014-Apr-06 14:31N 66°58' E 013°30'1211.6
2014-Apr-06 13:29N 67°05' E 013°55'1111.6
2014-Apr-06 12:33N 67°13' E 014°11'6 6.3
2014-Apr-06 11:33N 67°17' E 014°24'2 1.6
2014-Apr-06 10:33N 67°19' E 014°23'1211.7
2014-Apr-06 09:33N 67°31' E 014°28'1211.8
2014-Apr-06 08:33N 67°42' E 014°31'14510.4
2014-Apr-05 18:33N 69°34' E 018°46'8 7.8
2014-Apr-05 17:34N 69°40' E 018°59'1 0.5
2014-Apr-05 16:34N 69°41' E 018°59'0 0.2
2014-Apr-05 15:33N 69°41' E 018°59'233 6.8
2014-Apr-04 05:05N 66°39' E 012°25'611.0
2014-Apr-04 04:30N 66°33' E 012°26'1010.8
2014-Apr-04 03:33N 66°22' E 012°26'6 5.8
2014-Apr-04 02:33N 66°17' E 012°24'1110.2
2014-Apr-04 01:29N 66°08' E 012°40'  

Dump ship's entire track history

sailing weather and tide predictions

Folla — LLPD — position and weather